EGNR/CEG METAR and TAF weather

Enter ICAO airport designator
Station Type Date Time Source
EGNR METAR 2018/09/20 17:50 UTC NOAA

EGNR 201750Z 17005KT 2500 DZ OVC003 12/11 Q0996


Station Type Date Time Source
EGNR Decoded METAR 2018/09/20 17:50 UTC NOAA

Hawarden, United Kingdom (EGNR) 53-10N 002-59W 0M
Sep 20, 2018 - 01:50 PM EDT / 2018.09.20 1750 UTC
Wind: from the S (170 degrees) at 6 MPH (5 KT):0
Visibility: 1 mile(s):0
Sky conditions: overcast
Weather: drizzle
Temperature: 53 F (12 C)
Dew Point: 51 F (11 C)
Relative Humidity: 93%
Pressure (altimeter): 29.41 in. Hg (0996 hPa)
ob: EGNR 201750Z 17005KT 2500 DZ OVC003 12/11 Q0996
cycle: 18

Station Type Date Time Source
EGNR TAF 2016/01/23 12:00 UTC NOAA

TAF EGNR 231059Z 2312/2319 15009KT 9999 FEW020
BECMG 2316/2319 BKN014
TEMPO 2317/2319 6000 RA BKN008


Example: see airport list